Time;durP1;ratioP1;P1;durP2;ratioP2;P2;SDS_P1;SDS_P2;PMS_P1;PMS_P2;Temp;Humidity;BMP_temperature;BMP_pressure;BME280_temperature;BME280_humidity;BME280_pressure;Samples;Min_cycle;Max_cycle;Signal;HPM_P1;HPM_P2
2021/09/12 00:01:00;;;;;;;10.23;6.20;;;;;;;19.28;95.60;96495.03;5057489;28;20227;-71
2021/09/12 00:03:27;;;;;;;8.40;5.97;;;;;;;19.26;94.93;96497.94;5056410;28;20208;-71
2021/09/12 00:05:53;;;;;;;8.05;5.75;;;;;;;19.16;95.17;96502.19;5056852;28;20200;-71
2021/09/12 00:08:19;;;;;;;10.43;5.57;;;;;;;19.23;94.28;96500.25;5056901;28;20608;-71
2021/09/12 00:10:46;;;;;;;10.30;6.15;;;;;;;19.23;94.14;96494.88;5057307;28;20674;-71
2021/09/12 00:13:12;;;;;;;9.65;5.72;;;;;;;19.16;94.65;96491.50;5057318;28;20204;-71
2021/09/12 00:15:39;;;;;;;11.68;5.85;;;;;;;18.95;95.26;96502.56;5056793;28;20609;-71
2021/09/12 00:18:07;;;;;;;11.68;5.93;;;;;;;19.12;94.28;96495.66;5057150;28;21046;-70
2021/09/12 00:20:33;;;;;;;12.20;6.00;;;;;;;18.79;94.71;96505.00;5057525;28;20224;-71
2021/09/12 00:23:00;;;;;;;11.35;6.10;;;;;;;18.77;94.42;96493.75;5057147;28;20205;-71
2021/09/12 00:25:26;;;;;;;10.05;5.38;;;;;;;18.55;94.79;96504.00;5056777;28;20200;-71
2021/09/12 00:27:53;;;;;;;9.48;5.72;;;;;;;18.61;94.69;96505.81;5057312;28;20227;-71
2021/09/12 00:30:19;;;;;;;7.22;5.35;;;;;;;18.43;94.21;96502.28;5056916;28;20200;-70
2021/09/12 00:32:46;;;;;;;8.18;5.40;;;;;;;18.39;94.58;96501.91;5057303;28;20200;-71
2021/09/12 00:35:14;;;;;;;8.68;5.20;;;;;;;18.77;93.48;96502.56;5056208;28;20254;-71
2021/09/12 00:37:40;;;;;;;7.90;4.85;;;;;;;18.37;93.79;96501.31;5057377;28;20258;-71
2021/09/12 00:40:08;;;;;;;7.60;5.03;;;;;;;18.39;93.92;96501.91;5056653;28;20208;-71
2021/09/12 00:42:35;;;;;;;11.88;5.45;;;;;;;18.42;92.64;96498.81;5057287;28;20221;-70
2021/09/12 00:45:01;;;;;;;8.20;5.72;;;;;;;18.38;93.93;96499.47;5057225;28;20200;-71
2021/09/12 00:47:28;;;;;;;8.60;6.30;;;;;;;18.35;95.17;96497.22;5056499;28;20281;-71
2021/09/12 00:49:54;;;;;;;9.32;5.63;;;;;;;18.44;93.40;96496.75;5056479;28;20205;-71
2021/09/12 00:52:24;;;;;;;8.07;5.25;;;;;;;18.34;92.63;96491.06;5057440;28;20208;-71
2021/09/12 00:54:51;;;;;;;6.10;4.63;;;;;;;18.07;92.78;96496.78;5056678;28;20216;-71
2021/09/12 00:57:17;;;;;;;9.13;4.70;;;;;;;18.21;90.83;96495.69;5055873;28;20212;-71
2021/09/12 00:59:44;;;;;;;9.73;4.65;;;;;;;18.12;91.11;96493.50;5056950;28;20209;-71
2021/09/12 01:02:12;;;;;;;8.70;4.70;;;;;;;17.95;92.62;96493.19;5056632;28;20766;-72
2021/09/12 01:04:39;;;;;;;7.72;5.18;;;;;;;17.82;93.27;96501.28;5060396;28;20696;-71
2021/09/12 01:07:08;;;;;;;39.33;6.10;;;;;;;17.95;94.30;96498.53;5060277;28;20720;-71
2021/09/12 01:09:37;;;;;;;11.75;6.18;;;;;;;18.15;94.47;96495.72;5060766;28;20291;-71
2021/09/12 01:12:04;;;;;;;9.65;5.20;;;;;;;18.12;92.68;96493.50;5060371;28;20247;-71
2021/09/12 01:14:31;;;;;;;6.65;4.97;;;;;;;17.76;92.54;96488.81;5060871;28;20651;-71
2021/09/12 01:16:59;;;;;;;8.35;4.47;;;;;;;17.96;91.07;96488.66;5059371;28;20216;-71
2021/09/12 01:19:25;;;;;;;8.77;5.30;;;;;;;17.95;90.92;96477.19;5060521;28;20201;-71
2021/09/12 01:21:55;;;;;;;8.80;5.80;;;;;;;18.14;91.63;96488.75;5060230;28;20220;-71
2021/09/12 01:24:23;;;;;;;8.85;5.43;;;;;;;18.11;91.70;96478.50;5060266;28;20679;-71
2021/09/12 01:26:49;;;;;;;9.70;6.07;;;;;;;18.05;91.27;96479.38;5059776;28;20251;-71
2021/09/12 01:29:16;;;;;;;8.32;5.35;;;;;;;17.93;91.25;96475.78;5060331;28;20258;-71
2021/09/12 01:31:43;;;;;;;7.60;4.90;;;;;;;17.88;90.42;96473.78;5058656;28;20772;-71
2021/09/12 01:34:09;;;;;;;7.32;5.03;;;;;;;17.97;90.32;96472.47;5058750;28;20886;-71
2021/09/12 01:36:36;;;;;;;7.93;5.32;;;;;;;17.98;91.51;96473.28;5058084;28;20683;-71
2021/09/12 01:39:02;;;;;;;8.23;5.32;;;;;;;17.95;91.80;96469.19;5059225;28;20205;-71
2021/09/12 01:41:30;;;;;;;6.88;4.65;;;;;;;17.61;92.09;96468.81;5058822;28;20250;-71
2021/09/12 01:43:58;;;;;;;7.95;5.00;;;;;;;17.39;93.19;96464.06;5059802;28;20200;-71
2021/09/12 01:46:26;;;;;;;7.38;4.95;;;;;;;17.75;90.76;96457.84;5059028;28;20205;-71
2021/09/12 01:48:54;;;;;;;8.63;4.93;;;;;;;17.77;91.12;96465.66;5059246;28;20247;-71
2021/09/12 01:51:20;;;;;;;6.00;4.65;;;;;;;17.80;90.69;96459.88;5059481;28;20215;-71
2021/09/12 01:53:48;;;;;;;7.32;5.40;;;;;;;17.95;91.32;96468.41;5059434;28;20308;-71
2021/09/12 01:56:15;;;;;;;12.77;7.43;;;;;;;17.50;95.14;96468.69;5057818;28;20213;-71
2021/09/12 01:58:43;;;;;;;12.00;7.15;;;;;;;17.57;95.61;96458.81;5059157;28;20228;-70
2021/09/12 02:01:10;;;;;;;8.57;5.55;;;;;;;17.49;94.61;96465.22;5058672;28;20228;-71
2021/09/12 02:03:37;;;;;;;10.02;4.88;;;;;;;17.57;92.20;96459.63;5055483;28;20236;-70
2021/09/12 02:06:03;;;;;;;10.02;5.15;;;;;;;17.53;92.25;96470.94;5057078;28;20201;-71
2021/09/12 02:08:30;;;;;;;7.80;5.80;;;;;;;17.57;92.95;96464.94;5058988;28;21381;-71
2021/09/12 02:10:56;;;;;;;9.35;5.65;;;;;;;17.63;92.90;96468.59;5058661;28;20196;-71
2021/09/12 02:13:23;;;;;;;10.18;5.72;;;;;;;17.65;93.08;96462.03;5058214;28;20483;-71
2021/09/12 02:15:51;;;;;;;9.07;5.75;;;;;;;17.87;92.89;96460.63;5060319;28;20200;-71
2021/09/12 02:18:17;;;;;;;6.95;4.82;;;;;;;17.63;91.63;96458.78;5064289;28;20594;-71
2021/09/12 02:20:44;;;;;;;7.85;4.60;;;;;;;17.60;91.60;96464.50;5064261;28;20211;-71
2021/09/12 02:23:10;;;;;;;7.72;4.80;;;;;;;17.54;90.41;96459.22;5064962;28;20585;-71
2021/09/12 02:25:37;;;;;;;7.18;4.70;;;;;;;17.53;89.96;96458.41;5064135;28;20204;-72
2021/09/12 02:28:04;;;;;;;9.85;5.55;;;;;;;17.61;91.06;96466.16;5064421;28;20420;-71
2021/09/12 02:30:31;;;;;;;6.05;4.25;;;;;;;17.32;91.53;96461.41;5063596;28;20620;-71
2021/09/12 02:32:58;;;;;;;6.07;3.90;;;;;;;17.42;91.07;96460.94;5063573;28;20193;-71
2021/09/12 02:35:25;;;;;;;7.20;4.35;;;;;;;17.40;90.94;96461.16;5062839;28;20204;-71
2021/09/12 02:37:51;;;;;;;7.63;4.55;;;;;;;17.52;90.56;96459.44;5065028;28;20881;-71
2021/09/12 02:40:19;;;;;;;12.73;4.47;;;;;;;17.52;90.37;96466.63;5064448;28;20506;-71
2021/09/12 02:42:46;;;;;;;12.05;4.95;;;;;;;17.43;90.24;96467.91;5064708;28;20255;-71
2021/09/12 02:45:13;;;;;;;7.15;4.10;;;;;;;17.42;89.76;96458.28;5062996;28;20201;-71
2021/09/12 02:47:40;;;;;;;6.63;4.82;;;;;;;17.35;91.45;96462.81;5063935;28;20229;-71
2021/09/12 02:50:08;;;;;;;10.73;5.85;;;;;;;17.57;92.05;96461.47;5064183;28;20193;-71
2021/09/12 02:52:35;;;;;;;8.65;5.05;;;;;;;17.23;92.18;96452.00;5064074;28;20197;-71
2021/09/12 02:55:02;;;;;;;7.82;5.10;;;;;;;17.28;90.47;96448.72;5064019;28;20219;-71
2021/09/12 02:57:29;;;;;;;7.95;4.85;;;;;;;17.28;89.60;96449.53;5063369;28;20231;-71
2021/09/12 02:59:56;;;;;;;6.35;4.20;;;;;;;17.25;89.05;96449.97;5064138;28;20428;-71
2021/09/12 03:02:22;;;;;;;9.25;4.68;;;;;;;17.07;89.59;96454.34;5063966;28;20274;-71
2021/09/12 03:04:49;;;;;;;7.45;4.38;;;;;;;16.91;89.79;96446.81;5063792;28;20196;-71
2021/09/12 03:07:17;;;;;;;9.68;5.07;;;;;;;16.97;90.00;96447.81;5063300;28;20238;-71
2021/09/12 03:09:43;;;;;;;10.20;4.65;;;;;;;16.96;89.84;96444.34;5063799;28;20204;-71
2021/09/12 03:12:10;;;;;;;7.78;5.22;;;;;;;17.02;90.28;96442.66;5063591;28;20219;-71
2021/09/12 03:14:36;;;;;;;8.05;5.30;;;;;;;16.85;91.97;96449.50;5064093;28;20520;-71
2021/09/12 03:17:03;;;;;;;7.68;5.30;;;;;;;17.01;91.93;96451.72;5062984;28;20224;-71
2021/09/12 03:19:29;;;;;;;7.35;5.03;;;;;;;16.81;89.89;96453.59;5063340;28;20205;-71
2021/09/12 03:21:56;;;;;;;9.35;4.75;;;;;;;16.81;89.33;96456.28;5063743;28;20602;-71
2021/09/12 03:24:24;;;;;;;7.50;4.75;;;;;;;16.80;88.97;96455.47;5063470;28;20204;-71
2021/09/12 03:26:50;;;;;;;8.38;5.10;;;;;;;16.80;89.17;96459.94;5062342;28;20914;-71
2021/09/12 03:29:17;;;;;;;10.85;5.45;;;;;;;16.79;89.89;96458.31;5064054;28;20524;-72
2021/09/12 03:31:43;;;;;;;11.52;5.07;;;;;;;16.81;89.62;96456.28;5063710;28;20696;-71
2021/09/12 03:34:10;;;;;;;8.25;5.50;;;;;;;16.92;90.78;96458.28;5063533;28;20197;-71
2021/09/12 03:36:36;;;;;;;9.70;5.55;;;;;;;16.84;91.61;96450.50;5062524;28;20227;-71
2021/09/12 03:39:03;;;;;;;7.85;4.40;;;;;;;16.55;91.18;96454.50;5063338;28;20390;-71
2021/09/12 03:41:31;;;;;;;9.05;4.82;;;;;;;16.92;89.02;96452.97;5063610;28;20212;-71
2021/09/12 03:43:57;;;;;;;9.23;5.65;;;;;;;16.80;90.71;96459.94;5063348;28;20196;-71
2021/09/12 03:46:24;;;;;;;7.10;4.35;;;;;;;16.48;91.08;96456.38;5062211;28;20578;-71
2021/09/12 03:48:50;;;;;;;6.82;4.22;;;;;;;16.66;88.93;96451.22;5062972;28;20203;-71
2021/09/12 03:51:17;;;;;;;8.05;5.20;;;;;;;16.73;89.53;96444.00;5062871;28;20357;-71
2021/09/12 03:53:43;;;;;;;9.57;4.65;;;;;;;16.70;89.83;96443.59;5063176;28;20205;-71
2021/09/12 03:56:10;;;;;;;8.77;4.47;;;;;;;16.71;89.69;96450.56;5062445;28;20212;-71
2021/09/12 03:58:38;;;;;;;9.07;5.13;;;;;;;16.87;89.25;96450.91;5063320;28;20231;-71
2021/09/12 04:01:05;;;;;;;7.82;4.72;;;;;;;16.84;89.12;96445.19;5063134;28;20196;-72
2021/09/12 04:03:31;;;;;;;7.75;4.80;;;;;;;16.71;89.46;96442.56;5062662;28;20239;-72
2021/09/12 04:05:58;;;;;;;5.75;4.10;;;;;;;16.58;89.40;96434.63;5062472;28;20205;-72
2021/09/12 04:08:24;;;;;;;10.30;4.78;;;;;;;16.67;89.66;96434.19;5062413;28;20221;-72
2021/09/12 04:10:51;;;;;;;5.85;4.25;;;;;;;16.54;91.03;96436.09;5062936;28;20729;-72
2021/09/12 04:13:17;;;;;;;7.15;4.70;;;;;;;16.27;91.75;96441.69;5063173;28;20193;-72
2021/09/12 04:15:45;;;;;;;6.43;4.72;;;;;;;16.68;90.39;96435.03;5062293;28;20208;-72
2021/09/12 04:18:12;;;;;;;10.68;6.05;;;;;;;16.60;91.34;96438.72;5062382;28;20232;-72
2021/09/12 04:20:38;;;;;;;7.97;5.18;;;;;;;16.31;90.51;96445.56;5063366;28;20200;-72
2021/09/12 04:23:05;;;;;;;6.80;4.95;;;;;;;16.49;88.96;96441.22;5062511;28;20217;-72
2021/09/12 04:25:31;;;;;;;6.35;4.70;;;;;;;16.56;89.14;96437.50;5062418;28;20201;-72
2021/09/12 04:27:58;;;;;;;6.50;4.13;;;;;;;16.60;87.99;96436.06;5062693;28;20596;-72
2021/09/12 04:30:24;;;;;;;6.45;4.55;;;;;;;16.55;87.64;96441.19;5062901;28;20205;-72
2021/09/12 04:32:52;;;;;;;6.07;4.20;;;;;;;16.64;88.16;96444.47;5062247;28;20571;-72
2021/09/12 04:35:19;;;;;;;7.25;4.80;;;;;;;16.19;89.43;96450.66;5061436;28;20204;-72
2021/09/12 04:37:45;;;;;;;9.57;5.20;;;;;;;16.29;88.68;96451.06;5063816;28;20224;-72
2021/09/12 04:40:12;;;;;;;8.05;4.90;;;;;;;16.17;89.61;96452.69;5066898;28;20204;-72
2021/09/12 04:42:39;;;;;;;8.85;5.05;;;;;;;15.96;90.99;96447.59;5067206;28;20228;-72
2021/09/12 04:45:06;;;;;;;8.45;4.70;;;;;;;16.00;91.85;96451.47;5066499;28;20203;-72
2021/09/12 04:47:32;;;;;;;8.68;4.68;;;;;;;16.14;91.54;96453.09;5065846;28;20587;-72
2021/09/12 04:50:00;;;;;;;6.60;4.32;;;;;;;16.47;90.30;96451.25;5066298;28;20219;-72
2021/09/12 04:52:27;;;;;;;7.55;5.10;;;;;;;16.40;90.22;96450.44;5066637;28;20697;-72
2021/09/12 04:54:53;;;;;;;6.68;4.63;;;;;;;16.50;89.50;96448.16;5066675;28;20211;-72
2021/09/12 04:57:20;;;;;;;7.97;5.00;;;;;;;16.52;89.85;96446.09;5065507;28;20231;-72
2021/09/12 04:59:46;;;;;;;7.53;4.70;;;;;;;16.57;90.45;96444.47;5066550;28;20196;-72
2021/09/12 05:02:13;;;;;;;9.55;4.65;;;;;;;16.52;89.52;96456.75;5066199;28;20269;-72
2021/09/12 05:04:39;;;;;;;8.02;4.65;;;;;;;16.50;88.59;96454.28;5066566;28;20207;-72
2021/09/12 05:07:07;;;;;;;6.38;4.57;;;;;;;16.39;89.74;96464.75;5065139;28;20391;-72
2021/09/12 05:09:34;;;;;;;6.95;4.53;;;;;;;16.16;91.41;96458.22;5066357;28;20207;-72
2021/09/12 05:12:00;;;;;;;9.40;5.35;;;;;;;15.93;92.95;96461.28;5066406;28;20203;-72
2021/09/12 05:14:27;;;;;;;8.43;4.95;;;;;;;15.86;93.52;96463.13;5066193;28;20689;-72
2021/09/12 05:16:54;;;;;;;8.93;6.03;;;;;;;16.01;93.42;96463.75;5064979;28;20666;-72
2021/09/12 05:19:20;;;;;;;10.30;6.13;;;;;;;16.09;93.40;96460.06;5065749;28;20212;-72
2021/09/12 05:21:47;;;;;;;11.93;6.07;;;;;;;16.27;93.02;96463.75;5065903;28;20562;-72
2021/09/12 05:24:15;;;;;;;8.93;5.38;;;;;;;16.44;92.53;96464.94;5065977;28;20224;-72
2021/09/12 05:26:41;;;;;;;11.27;5.47;;;;;;;15.99;93.53;96460.47;5065572;28;20224;-72
2021/09/12 05:29:08;;;;;;;9.18;5.78;;;;;;;16.18;92.69;96469.47;5065726;28;20200;-72
2021/09/12 05:31:34;;;;;;;10.70;5.25;;;;;;;16.26;92.53;96464.78;5065920;28;20205;-72
2021/09/12 05:34:01;;;;;;;10.38;6.18;;;;;;;16.47;91.97;96471.72;5065103;28;20584;-72
2021/09/12 05:36:27;;;;;;;9.63;5.93;;;;;;;16.52;91.73;96473.53;5065347;28;20590;-72
2021/09/12 05:38:54;;;;;;;6.28;4.50;;;;;;;16.31;90.87;96470.28;5065568;28;20403;-72
2021/09/12 05:41:22;;;;;;;13.32;5.30;;;;;;;16.63;89.82;96466.75;5066299;28;20205;-72
2021/09/12 05:43:48;;;;;;;10.90;5.38;;;;;;;16.59;90.31;96473.53;5065619;28;20221;-72
2021/09/12 05:46:15;;;;;;;14.23;6.20;;;;;;;16.55;90.76;96477.63;5064737;28;20196;-72
2021/09/12 05:48:41;;;;;;;11.27;6.18;;;;;;;16.48;92.07;96482.13;5065116;28;21478;-72
2021/09/12 05:51:08;;;;;;;12.50;5.97;;;;;;;16.61;92.35;96482.09;5065842;28;20204;-72
2021/09/12 05:53:35;;;;;;;9.70;6.75;;;;;;;16.83;92.41;96492.31;5065732;28;20577;-72
2021/09/12 05:56:01;;;;;;;8.52;5.72;;;;;;;16.74;92.69;96493.56;5064553;28;20211;-72
2021/09/12 05:58:29;;;;;;;10.27;5.97;;;;;;;17.02;91.68;96490.59;5065807;28;20578;-72
2021/09/12 06:00:55;;;;;;;9.45;5.28;;;;;;;16.84;92.34;96493.09;5065438;28;20196;-72
2021/09/12 06:03:22;;;;;;;10.65;6.30;;;;;;;16.89;92.58;96494.13;5065301;28;20232;-72
2021/09/12 06:05:48;;;;;;;9.00;6.20;;;;;;;17.07;92.30;96496.94;5064766;28;20468;-72
2021/09/12 06:08:15;;;;;;;8.93;6.28;;;;;;;17.02;93.05;96493.25;5065112;28;20224;-72
2021/09/12 06:10:41;;;;;;;10.35;6.25;;;;;;;17.17;92.86;96492.81;5065435;28;20207;-72
2021/09/12 06:13:08;;;;;;;13.10;5.97;;;;;;;17.20;93.46;96489.69;5064850;28;20200;-72
2021/09/12 06:15:36;;;;;;;9.45;6.35;;;;;;;17.38;93.98;96487.19;5064689;28;20211;-72
2021/09/12 06:18:03;;;;;;;9.45;6.43;;;;;;;17.36;94.03;96485.78;5064734;28;20231;-72
2021/09/12 06:20:29;;;;;;;10.07;7.03;;;;;;;17.51;93.64;96488.97;5065249;28;20211;-72
2021/09/12 06:22:56;;;;;;;10.60;7.03;;;;;;;17.66;93.12;96482.31;5064563;28;20623;-72
2021/09/12 06:25:22;;;;;;;8.88;6.55;;;;;;;17.54;94.16;96492.03;5064652;28;20207;-72
2021/09/12 06:27:49;;;;;;;9.10;6.95;;;;;;;17.65;94.17;96487.88;5064776;28;20678;-72
2021/09/12 06:30:18;;;;;;;8.27;6.40;;;;;;;17.77;94.50;96493.13;5064579;28;20197;-72
2021/09/12 06:32:47;;;;;;;10.80;7.07;;;;;;;17.94;94.21;96493.41;5064315;28;20416;-72
2021/09/12 06:35:14;;;;;;;10.40;6.88;;;;;;;17.86;94.80;96491.81;5063950;28;20204;-72
2021/09/12 06:37:40;;;;;;;11.20;7.32;;;;;;;17.69;96.31;96494.41;5064464;28;20235;-72
2021/09/12 06:40:08;;;;;;;12.90;7.75;;;;;;;17.92;96.61;96490.97;5064127;28;20220;-72
2021/09/12 06:42:35;;;;;;;10.95;7.00;;;;;;;18.01;96.15;96488.84;5063982;28;20235;-72
2021/09/12 06:45:01;;;;;;;8.88;6.68;;;;;;;18.21;95.49;96492.22;5064634;28;20673;-72
2021/09/12 06:47:28;;;;;;;10.60;7.68;;;;;;;18.17;95.47;96499.00;5063456;28;20222;-72
2021/09/12 06:49:57;;;;;;;13.25;9.32;;;;;;;18.50;95.93;96493.19;5064781;28;20204;-72
2021/09/12 06:52:24;;;;;;;13.30;8.05;;;;;;;18.66;94.72;96495.28;5064409;28;20232;-72
2021/09/12 06:54:51;;;;;;;13.02;8.60;;;;;;;18.63;94.87;96493.06;5064233;28;20217;-72
2021/09/12 06:57:17;;;;;;;13.15;8.93;;;;;;;18.86;94.37;96490.56;5063178;28;20227;-72
2021/09/12 06:59:44;;;;;;;11.63;8.15;;;;;;;18.41;95.48;96497.16;5064034;28;20200;-72
2021/09/12 07:02:11;;;;;;;11.68;8.00;;;;;;;18.40;95.33;96506.19;5063915;28;20200;-72
2021/09/12 07:04:37;;;;;;;11.98;8.07;;;;;;;18.66;94.22;96495.28;5063578;28;20230;-72
2021/09/12 07:07:06;;;;;;;15.50;8.02;;;;;;;18.57;95.04;96496.63;5063374;28;20220;-72
2021/09/12 07:09:32;;;;;;;11.98;7.97;;;;;;;18.46;94.63;96500.00;5064009;28;20201;-72
2021/09/12 07:11:58;;;;;;;11.50;7.93;;;;;;;18.66;94.16;96503.31;5063682;28;20200;-72
2021/09/12 07:14:25;;;;;;;14.63;8.07;;;;;;;18.70;93.48;96504.50;5063959;28;20204;-72
2021/09/12 07:16:51;;;;;;;12.48;7.78;;;;;;;18.75;93.77;96506.50;5062714;28;20217;-72
2021/09/12 07:19:18;;;;;;;14.45;8.50;;;;;;;19.08;93.48;96507.81;5063602;28;20204;-72
2021/09/12 07:21:45;;;;;;;13.50;8.30;;;;;;;19.02;92.72;96500.66;5064042;28;20203;-72
2021/09/12 07:24:13;;;;;;;13.07;8.55;;;;;;;19.00;92.82;96502.72;5063552;28;20224;-72
2021/09/12 07:26:40;;;;;;;13.18;8.13;;;;;;;18.90;93.05;96506.97;5062917;28;20225;-72
2021/09/12 07:29:06;;;;;;;13.90;8.40;;;;;;;19.20;93.28;96503.38;5063458;28;20212;-72
2021/09/12 07:31:33;;;;;;;14.05;8.85;;;;;;;19.21;92.42;96507.69;5063440;28;20224;-72
2021/09/12 07:34:02;;;;;;;13.35;8.07;;;;;;;19.03;93.39;96502.31;5063926;28;20188;-72
2021/09/12 07:36:28;;;;;;;13.63;8.82;;;;;;;19.16;92.69;96512.88;5062730;28;20664;-72
2021/09/12 07:38:55;;;;;;;13.45;8.88;;;;;;;19.13;93.68;96505.28;5062960;28;20200;-72
2021/09/12 07:41:23;;;;;;;13.60;8.70;;;;;;;19.28;93.57;96505.72;5064006;28;20204;-72
2021/09/12 07:43:49;;;;;;;14.23;9.70;;;;;;;19.14;93.78;96505.09;5063211;28;20216;-72
2021/09/12 07:46:16;;;;;;;16.90;9.98;;;;;;;19.21;92.69;96503.13;5062620;28;20579;-72
2021/09/12 07:48:42;;;;;;;14.15;8.65;;;;;;;19.39;93.06;96497.78;5062702;28;20586;-72
2021/09/12 07:51:09;;;;;;;13.15;8.98;;;;;;;19.12;93.58;96499.13;5063356;28;20201;-72
2021/09/12 07:53:35;;;;;;;12.45;8.95;;;;;;;19.24;93.46;96501.88;5062817;28;20361;-72
2021/09/12 07:56:01;;;;;;;14.82;8.60;;;;;;;19.35;92.19;96507.28;5062517;28;20212;-72
2021/09/12 07:58:29;;;;;;;12.77;8.70;;;;;;;19.63;91.25;96499.53;5063312;28;20224;-72
2021/09/12 08:00:56;;;;;;;15.32;9.38;;;;;;;19.55;92.89;96501.69;5063055;28;20665;-72
2021/09/12 08:03:22;;;;;;;14.80;8.65;;;;;;;19.82;90.18;96504.59;5062771;28;20689;-72
2021/09/12 08:05:49;;;;;;;14.30;8.93;;;;;;;19.89;90.27;96512.53;5062662;28;20204;-73
2021/09/12 08:08:15;;;;;;;11.68;8.15;;;;;;;20.00;88.48;96515.25;5062574;28;20592;-72
2021/09/12 08:10:42;;;;;;;12.60;8.10;;;;;;;20.00;88.63;96514.47;5063002;28;20211;-72
2021/09/12 08:13:09;;;;;;;11.60;6.82;;;;;;;20.08;88.13;96514.94;5062167;28;20197;-72
2021/09/12 08:15:38;;;;;;;12.45;7.75;;;;;;;20.35;85.30;96517.00;5062012;28;20204;-72
2021/09/12 08:18:04;;;;;;;10.05;7.03;;;;;;;20.44;86.55;96520.13;5062709;28;20225;-73
2021/09/12 08:20:31;;;;;;;10.30;6.95;;;;;;;20.41;85.45;96515.25;5063025;28;20211;-73
2021/09/12 08:22:58;;;;;;;10.77;7.50;;;;;;;20.49;86.18;96517.56;5062710;28;20215;-73
2021/09/12 08:25:24;;;;;;;12.45;7.35;;;;;;;20.66;85.60;96518.50;5062216;28;20209;-72
2021/09/12 08:27:51;;;;;;;11.50;6.47;;;;;;;20.67;83.38;96514.78;5062431;28;20230;-73
2021/09/12 08:30:17;;;;;;;19.05;8.18;;;;;;;20.93;80.04;96509.81;5062843;28;20200;-73
2021/09/12 08:32:45;;;;;;;11.82;6.25;;;;;;;21.02;81.12;96517.25;5062483;28;20833;-73
2021/09/12 08:35:12;;;;;;;9.35;5.43;;;;;;;21.20;78.27;96522.47;5061706;28;20688;-73
2021/09/12 08:37:39;;;;;;;8.00;5.72;;;;;;;21.38;80.24;96516.97;5062524;28;20987;-73
2021/09/12 08:40:07;;;;;;;14.10;6.00;;;;;;;21.48;80.74;96522.53;5063192;28;20203;-72
2021/09/12 08:42:34;;;;;;;7.28;5.32;;;;;;;21.60;78.55;96524.19;5063017;28;20212;-73
2021/09/12 08:45:00;;;;;;;8.60;4.47;;;;;;;21.66;75.52;96522.41;5062306;28;20220;-73
2021/09/12 08:47:27;;;;;;;6.63;4.63;;;;;;;21.96;76.52;96529.16;5061698;28;20228;-73
2021/09/12 08:49:55;;;;;;;7.63;3.88;;;;;;;21.62;74.36;96531.97;5062498;28;20531;-73
2021/09/12 08:52:21;;;;;;;6.43;4.07;;;;;;;21.47;74.35;96529.78;5062617;28;20204;-73
2021/09/12 08:54:48;;;;;;;7.45;4.38;;;;;;;21.58;74.21;96525.47;5062309;28;20241;-73
2021/09/12 08:57:16;;;;;;;5.18;3.70;;;;;;;21.49;73.27;96537.59;5062303;28;20239;-73
2021/09/12 08:59:49;;;;;;;8.07;3.30;;;;;;;21.89;70.70;96533.84;5062593;28;20206;-72
2021/09/12 09:02:16;;;;;;;4.63;3.22;;;;;;;21.98;68.56;96531.59;5062352;28;20228;-73
2021/09/12 09:04:43;;;;;;;5.82;3.50;;;;;;;22.11;71.68;96535.63;5062305;28;20539;-72
2021/09/12 09:07:12;;;;;;;6.20;3.67;;;;;;;22.39;67.83;96527.56;5061602;28;20807;-73
2021/09/12 09:09:44;;;;;;;5.13;3.33;;;;;;;22.60;68.65;96517.97;5062593;28;20594;-73
2021/09/12 09:12:26;;;;;;;3.78;2.70;;;;;;;22.81;68.39;96526.09;5062555;28;20200;-73
2021/09/12 09:15:19;;;;;;;3.50;2.97;;;;;;;22.57;69.28;96521.13;5062010;28;20193;-72
2021/09/12 09:17:47;;;;;;;7.95;3.35;;;;;;;22.52;67.61;96515.72;5039245;28;20277;-73
2021/09/12 09:20:17;;;;;;;4.45;3.15;;;;;;;22.52;71.26;96507.66;5061989;28;20788;-73
2021/09/12 09:22:47;;;;;;;3.63;3.10;;;;;;;22.93;69.94;96503.44;5062482;28;20215;-73
2021/09/12 09:25:16;;;;;;;5.47;3.63;;;;;;;23.18;68.93;96494.94;5065129;28;20597;-73
2021/09/12 09:28:07;;;;;;;7.30;3.42;;;;;;;23.20;69.55;96500.91;5066171;28;20308;-73
2021/09/12 09:30:36;;;;;;;3.97;3.13;;;;;;;22.84;68.85;96496.84;5066166;28;20258;-73
2021/09/12 09:33:16;;;;;;;3.95;2.90;;;;;;;23.40;67.78;96492.03;5065434;28;20645;-73
2021/09/12 09:36:01;;;;;;;4.80;2.63;;;;;;;23.68;66.48;96493.72;5065503;28;20295;-73
2021/09/12 09:38:31;;;;;;;3.75;2.55;;;;;;;23.56;65.56;96501.09;5065688;28;20228;-73
2021/09/12 09:41:10;;;;;;;4.13;2.53;;;;;;;23.69;67.17;96482.72;5065884;28;20319;-73
2021/09/12 09:43:42;;;;;;;6.07;3.10;;;;;;;23.76;64.83;96485.22;5065631;28;20220;-73
2021/09/12 09:46:27;;;;;;;4.60;3.17;;;;;;;23.96;63.17;96486.25;5064805;28;20572;-73
2021/09/12 09:48:54;;;;;;;5.38;2.95;;;;;;;23.71;64.36;96482.47;5065625;28;20197;-73
2021/09/12 09:51:20;;;;;;;6.13;3.00;;;;;;;23.56;64.60;96483.09;5065455;28;20535;-73
2021/09/12 09:53:49;;;;;;;4.60;3.30;;;;;;;23.61;63.93;96482.31;5065326;28;20205;-75
2021/09/12 09:56:16;;;;;;;4.47;3.42;;;;;;;23.28;63.97;96487.00;5064557;28;20205;-73
2021/09/12 09:58:43;;;;;;;5.13;3.30;;;;;;;22.86;65.27;96485.84;5065160;28;20506;-73
2021/09/12 10:01:09;;;;;;;4.97;3.28;;;;;;;23.19;65.71;96478.56;5065407;28;20199;-73
2021/09/12 10:03:37;;;;;;;6.85;3.20;;;;;;;23.74;64.75;96476.56;5065159;28;20832;-72
2021/09/12 10:06:04;;;;;;;3.88;2.78;;;;;;;23.88;62.25;96483.19;5064418;28;20204;-72
2021/09/12 10:08:30;;;;;;;5.57;3.33;;;;;;;24.08;62.58;96479.66;5065090;28;20236;-73
2021/09/12 10:10:58;;;;;;;3.33;2.30;;;;;;;24.41;62.63;96475.94;5065058;28;20212;-73
2021/09/12 10:13:27;;;;;;;6.50;2.75;;;;;;;24.21;61.86;96470.31;5065196;28;20563;-73
2021/09/12 10:15:57;;;;;;;5.90;3.20;;;;;;;24.42;63.72;96467.59;5064514;28;20207;-73
2021/09/12 10:18:26;;;;;;;5.00;3.30;;;;;;;24.35;62.56;96468.84;5064677;28;20224;-73
2021/09/12 10:20:54;;;;;;;4.20;3.10;;;;;;;24.28;62.87;96470.94;5064640;28;20196;-73
2021/09/12 10:23:20;;;;;;;4.40;3.17;;;;;;;24.18;64.05;96471.63;5065082;28;20212;-73
2021/09/12 10:26:00;;;;;;;5.28;3.85;;;;;;;24.28;60.99;96470.94;5064497;28;20201;-73
2021/09/12 10:28:32;;;;;;;4.00;3.15;;;;;;;24.27;60.10;96466.63;5064866;28;20499;-73
2021/09/12 10:30:59;;;;;;;6.43;3.40;;;;;;;23.98;61.97;96462.56;5064891;28;20207;-73
2021/09/12 10:33:26;;;;;;;4.25;2.88;;;;;;;24.01;61.89;96465.56;5064614;28;20486;-73
2021/09/12 10:35:56;;;;;;;3.65;2.92;;;;;;;23.89;62.28;96458.69;5062869;28;20601;-73
2021/09/12 10:38:32;;;;;;;4.20;3.33;;;;;;;23.67;61.71;96455.22;5064922;28;20224;-72
2021/09/12 10:41:14;;;;;;;5.00;3.22;;;;;;;23.91;61.31;96464.66;5064822;28;20204;-73
2021/09/12 10:43:51;;;;;;;4.60;3.22;;;;;;;23.91;62.23;96456.56;5064421;28;20205;-73
2021/09/12 10:46:27;;;;;;;4.88;3.25;;;;;;;24.22;61.35;96461.19;5063737;28;20212;-73
2021/09/12 10:49:11;;;;;;;8.05;3.70;;;;;;;24.17;62.48;96461.13;5063775;28;20546;-73
2021/09/12 10:51:40;;;;;;;7.53;4.10;;;;;;;24.42;60.07;96459.50;5064663;28;20208;-73
2021/09/12 10:54:07;;;;;;;4.85;3.10;;;;;;;24.39;62.82;96462.72;5064237;28;20201;-73
2021/09/12 10:56:36;;;;;;;5.53;3.20;;;;;;;24.78;62.57;96459.53;5063728;28;20458;-73
2021/09/12 10:59:05;;;;;;;6.55;3.60;;;;;;;24.90;60.08;96449.34;5064196;28;20550;-73
2021/09/12 11:01:34;;;;;;;5.30;2.92;;;;;;;24.56;60.40;96448.00;5064179;28;20809;-73
2021/09/12 11:04:02;;;;;;;4.15;3.00;;;;;;;24.60;64.02;96449.16;5063919;28;21023;-73
2021/09/12 11:06:30;;;;;;;4.13;3.05;;;;;;;24.48;60.45;96447.69;5063005;28;20673;-73
2021/09/12 11:08:58;;;;;;;4.72;2.58;;;;;;;24.89;59.38;96445.00;5064092;28;20203;-73
2021/09/12 11:11:25;;;;;;;3.55;2.90;;;;;;;24.56;59.42;96449.91;5063681;28;20204;-73
2021/09/12 11:13:55;;;;;;;4.13;2.53;;;;;;;24.68;60.61;96448.66;5063746;28;20571;-73
2021/09/12 11:16:24;;;;;;;5.47;2.78;;;;;;;24.71;59.63;96450.03;5062866;28;20200;-73
2021/09/12 11:18:52;;;;;;;3.72;2.70;;;;;;;24.76;59.86;96448.16;5064012;28;20201;-73
2021/09/12 11:21:27;;;;;;;3.78;2.38;;;;;;;24.69;60.00;96449.47;5063582;28;20536;-73
2021/09/12 11:24:03;;;;;;;4.30;2.80;;;;;;;25.16;56.92;96444.94;5063181;28;20557;-73
2021/09/12 11:26:38;;;;;;;3.60;2.42;;;;;;;25.59;57.67;96440.00;5063148;28;20204;-73
2021/09/12 11:29:09;;;;;;;4.03;2.60;;;;;;;24.75;58.36;96438.44;5063997;28;20196;-73
2021/09/12 11:31:37;;;;;;;4.65;2.35;;;;;;;25.38;61.33;96438.28;5063668;28;20228;-73
2021/09/12 11:34:04;;;;;;;3.25;2.38;;;;;;;25.72;59.28;96434.13;5063103;28;20197;-73